Time;durP1;ratioP1;P1;durP2;ratioP2;P2;SDS_P1;SDS_P2;PMS_P1;PMS_P2;Temp;Humidity;BMP_temperature;BMP_pressure;BME280_temperature;BME280_humidity;BME280_pressure;Samples;Min_cycle;Max_cycle;Signal;HPM_P1;HPM_P2
2023/03/22 00:00:41;;;;;;;;;;;;;;;12.31;94.76;99029.97;5092987;28;19912;-72
2023/03/22 00:03:07;;;;;;;;;;;;;;;12.25;94.54;99027.78;5087716;28;19916;-72
2023/03/22 00:05:32;;;;;;;;;;;;;;;12.27;94.89;99029.06;5091505;28;20391;-72
2023/03/22 00:07:57;;;;;;;;;;;;;;;12.41;93.82;99030.63;5086087;28;19916;-71
2023/03/22 00:10:24;;;;;;;;;;;;;;;12.28;94.50;99029.84;5092623;28;19923;-71
2023/03/22 00:12:50;;;;;;;;;;;;;;;12.35;94.31;99030.06;5081814;28;19917;-72
2023/03/22 00:15:15;;;;;;;;;;;;;;;12.35;93.39;99033.66;5072381;28;20045;-71
2023/03/22 00:17:40;;;;;;;;;;;;;;;12.50;93.03;99036.91;5072554;28;20387;-71
2023/03/22 00:20:06;;;;;;;;;;;;;;;12.58;92.11;99029.50;5108000;27;19921;-71
2023/03/22 00:22:31;;;;;;;;;;;;;;;12.52;91.95;99033.72;5090750;28;20018;-72
2023/03/22 00:24:57;;;;;;;;;;;;;;;12.38;91.89;99034.94;5074245;28;19985;-72
2023/03/22 00:27:22;;;;;;;;;;;;;;;12.39;91.93;99030.19;5074843;28;19923;-72
2023/03/22 00:29:50;;;;;;;;;;;;;;;12.46;91.22;99028.38;5091163;28;19916;-72
2023/03/22 00:32:15;;;;;;;;;;;;;;;12.50;90.31;99025.69;5092377;28;19916;-72
2023/03/22 00:34:40;;;;;;;;;;;;;;;12.26;89.53;99026.59;5085689;28;19920;-72
2023/03/22 00:37:06;;;;;;;;;;;;;;;12.32;89.20;99030.78;5081127;28;19920;-72
2023/03/22 00:39:32;;;;;;;;;;;;;;;12.21;89.46;99036.06;5089380;28;20422;-72
2023/03/22 00:41:57;;;;;;;;;;;;;;;12.19;90.17;99049.66;5092202;28;19970;-72
2023/03/22 00:44:22;;;;;;;;;;;;;;;11.99;91.26;99034.63;5079478;28;19920;-72
2023/03/22 00:46:48;;;;;;;;;;;;;;;11.91;91.39;99036.41;5109062;27;19967;-72
2023/03/22 00:49:15;;;;;;;;;;;;;;;11.82;91.43;99033.72;5071672;28;20482;-72
2023/03/22 00:51:40;;;;;;;;;;;;;;;11.77;90.92;99025.56;5073699;28;19924;-72
2023/03/22 00:54:05;;;;;;;;;;;;;;;11.86;89.25;99029.06;5085379;28;19973;-71
2023/03/22 00:56:32;;;;;;;;;;;;;;;11.78;88.41;99025.22;5092180;28;19966;-72
2023/03/22 00:58:58;;;;;;;;;;;;;;;11.88;88.39;99028.69;5090349;28;20352;-72
2023/03/22 01:01:23;;;;;;;;;;;;;;;11.97;87.77;99017.34;5091205;28;19912;-71
2023/03/22 01:03:49;;;;;;;;;;;;;;;12.01;86.92;99021.88;5087908;28;19920;-71
2023/03/22 01:06:14;;;;;;;;;;;;;;;11.96;87.20;99012.91;5091950;28;20429;-71
2023/03/22 01:08:40;;;;;;;;;;;;;;;11.96;87.65;99010.91;5086851;28;19920;-71
2023/03/22 01:11:06;;;;;;;;;;;;;;;12.10;86.15;99013.34;5091722;28;19912;-72
2023/03/22 01:13:32;;;;;;;;;;;;;;;12.13;85.93;99007.03;5091381;28;20056;-71
2023/03/22 01:15:57;;;;;;;;;;;;;;;12.16;85.73;99014.72;5091545;28;19915;-72
2023/03/22 01:18:23;;;;;;;;;;;;;;;12.24;85.51;99006.53;5090250;28;19916;-72
2023/03/22 01:20:48;;;;;;;;;;;;;;;12.25;84.98;99003.38;5090853;28;19916;-72
2023/03/22 01:23:13;;;;;;;;;;;;;;;12.28;84.58;99002.66;5089659;28;21260;-71
2023/03/22 01:25:39;;;;;;;;;;;;;;;12.17;84.49;99005.13;5081499;28;19921;-72
2023/03/22 01:28:05;;;;;;;;;;;;;;;12.14;84.55;99007.84;5084849;28;19920;-71
2023/03/22 01:30:31;;;;;;;;;;;;;;;12.13;84.31;99003.44;5091568;28;20310;-71
2023/03/22 01:32:56;;;;;;;;;;;;;;;12.05;84.35;99016.41;5091982;28;19919;-72
2023/03/22 01:35:21;;;;;;;;;;;;;;;11.89;84.44;98999.50;5091531;28;19918;-71
2023/03/22 01:37:47;;;;;;;;;;;;;;;11.61;87.23;99009.50;5090234;28;20051;-71
2023/03/22 01:40:12;;;;;;;;;;;;;;;11.38;88.82;99011.97;5079676;28;19956;-71
2023/03/22 01:42:38;;;;;;;;;;;;;;;11.26;90.16;99004.41;5088412;28;20404;-71
2023/03/22 01:45:12;;;;;;;;;;;;;;;11.26;90.75;99003.59;5091515;28;19920;-71
2023/03/22 01:47:44;;;;;;;;;;;;;;;11.18;90.85;99008.97;5091496;28;19918;-71
2023/03/22 01:50:09;;;;;;;;;;;;;;;11.26;91.07;99009.19;5086005;28;19923;-71
2023/03/22 01:52:36;;;;;;;;;;;;;;;11.09;91.06;99005.47;5090290;28;19912;-71
2023/03/22 01:55:03;;;;;;;;;;;;;;;11.14;91.67;99018.41;5091448;28;20318;-71
2023/03/22 01:57:28;;;;;;;;;;;;;;;10.99;90.86;99015.16;5071811;28;20423;-71
2023/03/22 01:59:54;;;;;;;;;;;;;;;10.84;92.71;99018.63;5087763;28;20014;-71
2023/03/22 02:02:20;;;;;;;;;;;;;;;10.81;93.15;99014.56;5091527;28;20335;-72
2023/03/22 02:04:49;;;;;;;;;;;;;;;10.85;92.73;99014.66;5091360;28;19912;-71
2023/03/22 02:07:24;;;;;;;;;;;;;;;10.92;92.31;99023.31;5089266;28;19977;-72
2023/03/22 02:09:50;;;;;;;;;;;;;;;11.08;92.19;99020.63;5091328;28;20464;-72
2023/03/22 02:12:16;;;;;;;;;;;;;;;10.96;92.38;99021.44;5088250;28;20375;-71
2023/03/22 02:14:41;;;;;;;;;;;;;;;10.95;92.45;99017.00;5086495;28;19923;-71
2023/03/22 02:17:19;;;;;;;;;;;;;;;10.82;91.98;99019.78;5090162;28;20411;-71
2023/03/22 02:19:44;;;;;;;;;;;;;;;10.58;93.23;99025.34;5091030;28;19924;-71
2023/03/22 02:22:09;;;;;;;;;;;;;;;10.46;93.84;99029.72;5089638;28;19915;-71
2023/03/22 02:24:54;;;;;;;;;;;;;;;10.38;94.13;99030.63;5090108;28;19920;-71
2023/03/22 02:27:36;;;;;;;;;;;;;;;10.17;95.49;99028.69;5090669;28;20013;-71
2023/03/22 02:30:24;;;;;;;;;;;;;;;10.18;95.24;99030.31;5088439;28;20375;-71
2023/03/22 02:33:01;;;;;;;;;;;;;;;10.18;95.04;99030.31;5094308;28;19982;-71
2023/03/22 02:35:35;;;;;;;;;;;;;;;10.08;94.12;99030.72;5093674;28;20291;-71
2023/03/22 02:38:13;;;;;;;;;;;;;;;10.02;95.78;99032.13;5094733;28;19916;-71
2023/03/22 02:40:57;;;;;;;;;;;;;;;10.00;93.56;99040.00;5092627;28;19916;-71
2023/03/22 02:43:32;;;;;;;;;;;;;;;9.97;94.20;99036.75;5094825;28;20390;-71
2023/03/22 02:46:10;;;;;;;;;;;;;;;10.02;93.96;99032.13;5092780;28;20015;-71
2023/03/22 02:48:54;;;;;;;;;;;;;;;10.06;94.01;99042.25;5074848;28;19916;-71
2023/03/22 02:51:21;;;;;;;;;;;;;;;9.95;95.05;99049.41;5091134;28;20299;-71
2023/03/22 02:53:51;;;;;;;;;;;;;;;9.96;95.62;99046.28;5094336;28;19916;-71
2023/03/22 02:56:38;;;;;;;;;;;;;;;9.91;95.76;99052.09;5076458;28;19912;-71
2023/03/22 02:59:05;;;;;;;;;;;;;;;9.81;97.19;99050.50;5073894;28;19917;-71
2023/03/22 03:01:34;;;;;;;;;;;;;;;9.82;97.80;99051.31;5087241;28;19992;-71
2023/03/22 03:04:03;;;;;;;;;;;;;;;9.96;97.05;99051.88;5089210;28;19920;-71
2023/03/22 03:06:32;;;;;;;;;;;;;;;9.97;96.52;99047.09;5094033;28;19938;-71
2023/03/22 03:09:01;;;;;;;;;;;;;;;10.12;96.60;99048.44;5094072;28;20303;-71
2023/03/22 03:11:27;;;;;;;;;;;;;;;10.27;95.47;99057.38;5086743;28;20019;-71
2023/03/22 03:13:52;;;;;;;;;;;;;;;10.17;94.61;99042.66;5091856;28;19916;-71
2023/03/22 03:16:19;;;;;;;;;;;;;;;10.06;95.13;99056.22;5093631;28;20328;-71
2023/03/22 03:19:00;;;;;;;;;;;;;;;10.07;94.49;99057.03;5091584;28;19938;-71
2023/03/22 03:21:33;;;;;;;;;;;;;;;10.09;93.98;99058.34;5091013;28;19917;-71
2023/03/22 03:23:59;;;;;;;;;;;;;;;10.14;93.27;99056.50;5085173;28;20392;-71
2023/03/22 03:26:39;;;;;;;;;;;;;;;10.12;93.15;99059.63;5088893;28;19927;-71
2023/03/22 03:29:13;;;;;;;;;;;;;;;10.13;93.24;99063.25;5093761;28;19912;-71
2023/03/22 03:31:38;;;;;;;;;;;;;;;10.28;91.89;99059.00;5093167;28;19912;-71
2023/03/22 03:34:12;;;;;;;;;;;;;;;10.28;92.50;99059.81;5089934;28;19950;-71
2023/03/22 03:36:41;;;;;;;;;;;;;;;10.21;92.00;99057.56;5073256;28;19960;-71
2023/03/22 03:39:09;;;;;;;;;;;;;;;10.39;91.88;99063.00;5072810;28;19920;-71
2023/03/22 03:41:35;;;;;;;;;;;;;;;10.41;91.13;99063.50;5073468;28;20360;-71
2023/03/22 03:44:02;;;;;;;;;;;;;;;10.37;91.73;99070.91;5079037;28;19916;-71
2023/03/22 03:46:28;;;;;;;;;;;;;;;10.21;92.47;99068.75;5088201;28;19960;-71
2023/03/22 03:48:55;;;;;;;;;;;;;;;10.30;92.77;99071.47;5087748;28;20374;-71
2023/03/22 03:51:21;;;;;;;;;;;;;;;10.48;91.98;99071.34;5093276;28;20090;-71
2023/03/22 03:53:46;;;;;;;;;;;;;;;10.36;91.99;99070.09;5075173;28;19963;-71
2023/03/22 03:56:11;;;;;;;;;;;;;;;10.40;92.07;99076.63;5072288;28;19917;-71
2023/03/22 03:58:37;;;;;;;;;;;;;;;10.55;91.16;99070.78;5072852;28;19912;-71
2023/03/22 04:01:02;;;;;;;;;;;;;;;10.57;90.59;99080.47;5122174;27;19923;-71
2023/03/22 04:03:28;;;;;;;;;;;;;;;10.48;89.96;99074.94;5088281;28;19920;-71
2023/03/22 04:05:53;;;;;;;;;;;;;;;10.32;91.65;99074.75;5072741;28;20311;-71
2023/03/22 04:08:19;;;;;;;;;;;;;;;10.33;91.30;99072.75;5072964;28;19916;-71
2023/03/22 04:10:48;;;;;;;;;;;;;;;10.49;90.96;99084.16;5071492;28;19924;-71
2023/03/22 04:13:13;;;;;;;;;;;;;;;10.52;89.89;99081.50;5073730;28;20367;-71
2023/03/22 04:15:39;;;;;;;;;;;;;;;10.36;90.96;99086.03;5092225;28;19945;-71
2023/03/22 04:18:05;;;;;;;;;;;;;;;10.52;90.20;99089.06;5092663;28;19912;-71
2023/03/22 04:20:31;;;;;;;;;;;;;;;10.61;88.90;99084.19;5092762;28;20010;-71
2023/03/22 04:22:56;;;;;;;;;;;;;;;10.76;88.47;99093.94;5092591;28;19951;-71
2023/03/22 04:25:22;;;;;;;;;;;;;;;10.93;87.95;99104.09;5089355;28;19927;-71
2023/03/22 04:27:49;;;;;;;;;;;;;;;11.00;88.09;99095.13;5085044;28;19923;-71
2023/03/22 04:30:18;;;;;;;;;;;;;;;11.04;87.05;99104.47;5091219;28;20370;-71
2023/03/22 04:32:46;;;;;;;;;;;;;;;10.96;87.52;99108.19;5088072;28;19973;-71
2023/03/22 04:35:11;;;;;;;;;;;;;;;10.81;87.56;99102.09;5092444;28;19912;-71
2023/03/22 04:37:36;;;;;;;;;;;;;;;10.86;87.11;99097.41;5092311;28;20310;-71
2023/03/22 04:40:05;;;;;;;;;;;;;;;10.96;86.08;99105.38;5090372;28;19942;-71
2023/03/22 04:42:31;;;;;;;;;;;;;;;11.05;86.01;99102.50;5091764;28;19973;-71
2023/03/22 04:44:56;;;;;;;;;;;;;;;11.08;85.55;99107.41;5089098;28;19920;-71
2023/03/22 04:47:21;;;;;;;;;;;;;;;10.92;87.10;99113.66;5092141;28;20004;-71
2023/03/22 04:49:47;;;;;;;;;;;;;;;11.07;87.37;99114.16;5092344;28;19951;-71
2023/03/22 04:52:12;;;;;;;;;;;;;;;11.01;87.75;99121.13;5092103;28;19965;-71
2023/03/22 04:54:37;;;;;;;;;;;;;;;10.75;90.08;99123.06;5087196;28;20428;-71
2023/03/22 04:57:03;;;;;;;;;;;;;;;10.88;90.33;99125.91;5092120;28;19912;-71
2023/03/22 04:59:28;;;;;;;;;;;;;;;10.89;90.46;99127.53;5092076;28;19920;-71
2023/03/22 05:01:54;;;;;;;;;;;;;;;10.93;90.15;99132.09;5078603;28;19948;-71
2023/03/22 05:04:19;;;;;;;;;;;;;;;11.02;89.59;99137.59;5083818;28;19923;-71
2023/03/22 05:06:45;;;;;;;;;;;;;;;10.92;90.26;99136.06;5091926;28;19916;-71
2023/03/22 05:09:11;;;;;;;;;;;;;;;10.70;90.57;99139.25;5089529;28;20301;-71
2023/03/22 05:11:37;;;;;;;;;;;;;;;10.80;90.68;99153.59;5086066;28;19924;-71
2023/03/22 05:14:03;;;;;;;;;;;;;;;10.85;89.03;99140.56;5071753;28;19913;-71
2023/03/22 05:16:28;;;;;;;;;;;;;;;10.64;88.76;99147.03;5082326;28;20401;-71
2023/03/22 05:18:53;;;;;;;;;;;;;;;10.81;88.42;99152.44;5082094;28;20338;-71
2023/03/22 05:21:20;;;;;;;;;;;;;;;10.78;88.19;99153.13;5073957;28;20027;-71
2023/03/22 05:23:46;;;;;;;;;;;;;;;10.73;88.50;99161.72;5083215;28;19916;-71
2023/03/22 05:26:14;;;;;;;;;;;;;;;10.71;89.31;99152.88;5072677;28;19931;-71
2023/03/22 05:28:39;;;;;;;;;;;;;;;10.87;88.56;99161.44;5082752;28;19978;-72
2023/03/22 05:31:05;;;;;;;;;;;;;;;10.89;87.92;99170.31;5083133;28;20026;-72
2023/03/22 05:33:30;;;;;;;;;;;;;;;10.97;88.14;99157.38;5085029;28;19962;-72
2023/03/22 05:35:56;;;;;;;;;;;;;;;11.01;88.03;99172.34;5088988;28;19920;-74
2023/03/22 05:38:24;;;;;;;;;;;;;;;10.96;88.26;99166.94;5084455;28;19970;-74
2023/03/22 05:40:50;;;;;;;;;;;;;;;11.06;87.57;99171.31;5085507;28;19946;-75
2023/03/22 05:43:15;;;;;;;;;;;;;;;10.97;88.61;99176.97;5088503;28;19924;-74
2023/03/22 05:45:41;;;;;;;;;;;;;;;10.90;89.34;99171.13;5080904;28;19919;-74
2023/03/22 05:48:06;;;;;;;;;;;;;;;10.79;89.02;99170.72;5086561;28;19928;-71
2023/03/22 05:50:32;;;;;;;;;;;;;;;10.72;90.05;99181.66;5087174;28;19982;-75
2023/03/22 05:52:57;;;;;;;;;;;;;;;10.78;89.74;99181.13;5084139;28;20125;-73
2023/03/22 05:55:23;;;;;;;;;;;;;;;10.78;90.08;99185.88;5087162;28;19920;-74
2023/03/22 05:57:50;;;;;;;;;;;;;;;10.71;91.03;99183.63;5087078;28;20875;-73
2023/03/22 06:00:16;;;;;;;;;;;;;;;10.34;92.71;99183.41;5085458;28;19935;-73
2023/03/22 06:02:43;;;;;;;;;;;;;;;9.93;95.27;99183.03;5079006;28;20468;-73
2023/03/22 06:05:09;;;;;;;;;;;;;;;9.96;95.47;99188.78;5085058;28;19920;-73
2023/03/22 06:07:35;;;;;;;;;;;;;;;10.15;95.01;99186.69;5086342;28;20337;-73
2023/03/22 06:10:00;;;;;;;;;;;;;;;10.30;94.86;99182.47;5080000;28;19920;-73
2023/03/22 06:12:25;;;;;;;;;;;;;;;10.11;94.89;99186.53;5078457;28;20303;-73
2023/03/22 06:14:51;;;;;;;;;;;;;;;9.91;96.49;99191.78;5089292;28;20380;-73
2023/03/22 06:17:17;;;;;;;;;;;;;;;10.11;96.78;99194.91;5090447;28;19924;-72
2023/03/22 06:19:42;;;;;;;;;;;;;;;10.36;94.79;99198.72;5084661;28;19923;-73
2023/03/22 06:22:07;;;;;;;;;;;;;;;10.50;94.85;99206.03;5091845;28;19920;-73
2023/03/22 06:24:33;;;;;;;;;;;;;;;10.54;95.04;99212.56;5084433;28;19927;-71
2023/03/22 06:26:58;;;;;;;;;;;;;;;10.48;94.36;99209.16;5085361;28;19924;-72
2023/03/22 06:29:23;;;;;;;;;;;;;;;10.36;95.39;99217.44;5090043;28;19950;-75
2023/03/22 06:31:49;;;;;;;;;;;;;;;10.40;95.43;99221.22;5085811;28;19931;-72
2023/03/22 06:34:14;;;;;;;;;;;;;;;10.57;94.57;99227.84;5075332;28;20395;-72
2023/03/22 06:36:41;;;;;;;;;;;;;;;10.58;95.15;99226.69;5072396;28;19958;-73
2023/03/22 06:39:06;;;;;;;;;;;;;;;10.43;96.21;99231.75;5081164;28;20018;-72
2023/03/22 06:41:32;;;;;;;;;;;;;;;10.56;94.77;99226.22;5089797;28;19998;-73
2023/03/22 06:43:57;;;;;;;;;;;;;;;10.41;95.73;99234.06;5091095;28;19924;-72
2023/03/22 06:46:22;;;;;;;;;;;;;;;10.41;96.09;99234.06;5074223;28;19925;-71
2023/03/22 06:48:48;;;;;;;;;;;;;;;10.53;95.20;99231.34;5076246;28;19950;-74
2023/03/22 06:51:13;;;;;;;;;;;;;;;10.51;95.48;99239.25;5086478;28;19959;-73
2023/03/22 06:53:38;;;;;;;;;;;;;;;10.54;95.00;99237.75;5091000;28;19920;-73
2023/03/22 06:56:04;;;;;;;;;;;;;;;10.50;94.69;99231.19;5092822;28;19961;-70
2023/03/22 06:58:29;;;;;;;;;;;;;;;10.55;94.51;99238.56;5087516;28;19924;-70
2023/03/22 07:00:55;;;;;;;;;;;;;;;10.76;93.56;99236.59;5072207;28;19927;-69
2023/03/22 07:03:21;;;;;;;;;;;;;;;10.71;93.53;99241.56;5085192;28;19924;-73
2023/03/22 07:05:46;;;;;;;;;;;;;;;10.80;93.80;99245.94;5084506;28;20398;-72
2023/03/22 07:08:11;;;;;;;;;;;;;;;10.93;93.84;99248.78;5091159;28;19920;-71
2023/03/22 07:10:36;;;;;;;;;;;;;;;11.00;92.52;99253.81;5088613;28;19958;-70
2023/03/22 07:13:02;;;;;;;;;;;;;;;10.91;92.26;99251.13;5080451;28;19982;-72
2023/03/22 07:15:28;;;;;;;;;;;;;;;10.99;92.38;99246.59;5086514;28;20294;-72
2023/03/22 07:17:53;;;;;;;;;;;;;;;11.05;92.34;99253.63;5085323;28;19916;-73
2023/03/22 07:20:19;;;;;;;;;;;;;;;11.11;91.62;99259.84;5083887;28;19920;-69
2023/03/22 07:22:45;;;;;;;;;;;;;;;10.75;91.73;99262.94;5080294;28;20464;-72
2023/03/22 07:25:10;;;;;;;;;;;;;;;10.94;91.28;99267.22;5079341;28;19920;-73
2023/03/22 07:27:36;;;;;;;;;;;;;;;11.00;90.61;99260.25;5090484;28;19924;-73
2023/03/22 07:30:02;;;;;;;;;;;;;;;10.78;92.35;99273.44;5084457;28;19951;-74
2023/03/22 07:32:27;;;;;;;;;;;;;;;10.70;93.62;99268.72;5094753;28;19923;-76
2023/03/22 07:34:53;;;;;;;;;;;;;;;10.36;95.13;99270.56;5094294;28;19924;-74
2023/03/22 07:37:18;;;;;;;;;;;;;;;10.22;96.86;99266.03;5088689;28;20315;-73
2023/03/22 07:39:44;;;;;;;;;;;;;;;10.42;96.75;99279.59;5114185;28;19923;-76
2023/03/22 07:42:09;;;;;;;;;;;;;;;10.50;96.78;99273.97;5112656;28;20371;-75
2023/03/22 07:44:34;;;;;;;;;;;;;;;10.64;96.38;99279.28;5082676;28;19916;-74
2023/03/22 07:47:00;;;;;;;;;;;;;;;10.37;96.15;99272.19;5090963;28;19930;-71
2023/03/22 07:49:26;;;;;;;;;;;;;;;10.08;100.00;99271.88;5091231;28;20394;-77
2023/03/22 07:51:51;;;;;;;;;;;;;;;10.12;100.00;99272.00;5088912;28;19928;-76
2023/03/22 07:54:16;;;;;;;;;;;;;;;10.07;100.00;99269.41;5091301;28;19973;-75
2023/03/22 07:56:43;;;;;;;;;;;;;;;10.12;100.00;99272.00;5088868;28;20279;-75
2023/03/22 07:59:09;;;;;;;;;;;;;;;10.04;100.00;99264.50;5088933;28;19943;-74
2023/03/22 08:01:34;;;;;;;;;;;;;;;10.08;100.00;99252.31;5090716;28;19942;-75
2023/03/22 08:04:00;;;;;;;;;;;;;;;10.02;100.00;99264.84;5092138;28;19916;-75
2023/03/22 08:06:25;;;;;;;;;;;;;;;9.96;100.00;99269.78;5091556;28;19970;-77
2023/03/22 08:08:51;;;;;;;;;;;;;;;9.94;100.00;99271.28;5093151;28;19913;-75
2023/03/22 08:11:16;;;;;;;;;;;;;;;9.79;100.00;99269.88;5093183;28;19927;-77
2023/03/22 08:13:41;;;;;;;;;;;;;;;9.75;100.00;99274.47;5093079;28;19919;-79
2023/03/22 08:16:07;;;;;;;;;;;;;;;9.86;100.00;99281.34;5083319;28;19923;-76
2023/03/22 08:18:32;;;;;;;;;;;;;;;9.85;100.00;99278.91;5095537;28;19912;-75
2023/03/22 08:20:58;;;;;;;;;;;;;;;10.08;100.00;99274.69;5095214;28;20390;-76
2023/03/22 08:23:24;;;;;;;;;;;;;;;10.29;100.00;99279.47;5085768;28;19955;-75
2023/03/22 08:25:49;;;;;;;;;;;;;;;10.18;100.00;99287.44;5072919;28;19920;-75
2023/03/22 08:28:15;;;;;;;;;;;;;;;10.30;100.00;99278.31;5081587;28;20011;-73
2023/03/22 08:30:41;;;;;;;;;;;;;;;10.37;100.00;99286.19;5091124;28;19912;-75
2023/03/22 08:33:06;;;;;;;;;;;;;;;10.36;100.00;99279.78;5089223;28;19925;-75
2023/03/22 08:35:32;;;;;;;;;;;;;;;10.51;100.00;99274.78;5076069;28;19916;-75
2023/03/22 08:37:58;;;;;;;;;;;;;;;10.72;100.00;99276.78;5092570;28;20003;-72
2023/03/22 08:40:23;;;;;;;;;;;;;;;10.85;100.00;99280.44;5093958;28;20199;-74
2023/03/22 08:42:49;;;;;;;;;;;;;;;10.64;98.05;99287.69;5090474;28;19971;-75
2023/03/22 08:45:14;;;;;;;;;;;;;;;10.51;97.94;99281.22;5083730;28;19926;-74
2023/03/22 08:47:40;;;;;;;;;;;;;;;10.63;97.96;99280.44;5072528;28;19966;-72
2023/03/22 08:50:06;;;;;;;;;;;;;;;10.50;97.53;99273.97;5072204;28;19966;-72
2023/03/22 08:52:31;;;;;;;;;;;;;;;10.69;96.95;99272.69;5071922;28;19919;-73
2023/03/22 08:54:56;;;;;;;;;;;;;;;10.53;96.71;99276.09;5071874;28;19923;-74
2023/03/22 08:57:22;;;;;;;;;;;;;;;10.76;96.86;99286.13;5072114;28;19920;-72
2023/03/22 08:59:48;;;;;;;;;;;;;;;11.11;96.86;99288.63;5104678;28;19985;-73
2023/03/22 09:02:13;;;;;;;;;;;;;;;11.14;93.08;99282.34;5071947;28;19912;-73
2023/03/22 09:04:39;;;;;;;;;;;;;;;11.19;94.57;99289.72;5073695;28;20363;-74
2023/03/22 09:07:04;;;;;;;;;;;;;;;11.18;92.53;99286.09;5091988;28;19922;-76
2023/03/22 09:09:30;;;;;;;;;;;;;;;11.44;92.08;99284.19;5086680;28;19917;-77
2023/03/22 09:11:55;;;;;;;;;;;;;;;11.83;92.41;99281.97;5072256;28;20390;-74
2023/03/22 09:14:20;;;;;;;;;;;;;;;11.96;92.08;99290.38;5071908;28;19912;-71
2023/03/22 09:16:46;;;;;;;;;;;;;;;11.96;91.43;99281.97;5089806;28;19916;-80
2023/03/22 09:19:12;;;;;;;;;;;;;;;12.27;90.33;99289.00;5090965;28;19912;-76
2023/03/22 09:21:37;;;;;;;;;;;;;;;12.10;90.25;99292.88;5091221;28;19912;-73
2023/03/22 09:24:02;;;;;;;;;;;;;;;11.76;90.29;99290.91;5090636;28;19916;-74
2023/03/22 09:26:28;;;;;;;;;;;;;;;11.58;90.82;99298.69;5077188;28;19943;-75
2023/03/22 09:28:53;;;;;;;;;;;;;;;11.66;89.31;99295.00;5103146;28;19912;-72
2023/03/22 09:31:19;;;;;;;;;;;;;;;12.07;88.17;99297.22;5083552;28;20325;-75
2023/03/22 09:33:45;;;;;;;;;;;;;;;12.08;89.29;99301.63;5071790;28;19913;-73
2023/03/22 09:36:13;;;;;;;;;;;;;;;11.79;89.09;99297.81;5071683;28;19920;-71
2023/03/22 09:38:40;;;;;;;;;;;;;;;11.84;89.27;99291.19;5072782;28;19966;-73
2023/03/22 09:41:07;;;;;;;;;;;;;;;11.81;91.78;99295.47;5092590;28;19919;-74
2023/03/22 09:43:38;;;;;;;;;;;;;;;11.96;92.45;99294.00;5092185;28;19924;-73
2023/03/22 09:46:07;;;;;;;;;;;;;;;12.09;91.92;99300.47;5093987;28;19920;-75
2023/03/22 09:48:34;;;;;;;;;;;;;;;12.05;91.53;99294.75;5097662;28;20006;-72
2023/03/22 09:51:01;;;;;;;;;;;;;;;12.05;90.93;99291.09;5095774;28;19916;-74
2023/03/22 09:53:27;;;;;;;;;;;;;;;11.96;92.06;99291.19;5093180;28;19916;-74
2023/03/22 09:56:05;;;;;;;;;;;;;;;12.31;91.92;99284.34;5081446;28;20397;-73
2023/03/22 09:58:42;;;;;;;;;;;;;;;12.06;88.94;99289.94;5094914;28;19942;-75
2023/03/22 10:01:20;;;;;;;;;;;;;;;11.89;88.29;99285.34;5094135;28;19923;-75
2023/03/22 10:04:04;;;;;;;;;;;;;;;11.84;94.10;99286.41;5086605;28;19943;-76
2023/03/22 10:06:29;;;;;;;;;;;;;;;12.09;91.04;99300.47;5102768;28;19924;-75
2023/03/22 10:09:15;;;;;;;;;;;;;;;12.42;89.48;99298.72;5092029;28;19916;-78
2023/03/22 10:11:40;;;;;;;;;;;;;;;12.45;87.84;99284.81;5086085;28;19979;-74
2023/03/22 10:14:24;;;;;;;;;;;;;;;12.42;87.89;99290.28;5096859;28;19995;-74
2023/03/22 10:16:51;;;;;;;;;;;;;;;12.30;89.82;99285.50;5095720;28;19947;-75
2023/03/22 10:19:22;;;;;;;;;;;;;;;12.01;86.86;99293.78;5093913;28;19916;-75
2023/03/22 10:21:49;;;;;;;;;;;;;;;12.31;86.49;99296.38;5092019;28;19927;-74
2023/03/22 10:24:21;;;;;;;;;;;;;;;12.27;88.38;99284.22;5091799;28;20003;-73
2023/03/22 10:26:47;;;;;;;;;;;;;;;12.59;85.99;99295.63;5092615;28;19927;-74
2023/03/22 10:29:36;;;;;;;;;;;;;;;12.74;83.05;99285.69;5081893;28;19916;-75
2023/03/22 10:32:18;;;;;;;;;;;;;;;12.71;81.43;99277.97;5085063;28;19923;-74
2023/03/22 10:34:44;;;;;;;;;;;;;;;12.61;79.22;99281.28;5094533;28;19939;-71
2023/03/22 10:37:15;;;;;;;;;;;;;;;12.84;83.05;99277.94;5090505;28;19920;-71
2023/03/22 10:39:43;;;;;;;;;;;;;;;12.84;84.23;99275.13;5093235;28;19969;-70
2023/03/22 10:42:16;;;;;;;;;;;;;;;12.80;83.81;99268.63;5090690;28;19920;-71
2023/03/22 10:44:47;;;;;;;;;;;;;;;12.78;84.47;99274.56;5087164;28;20382;-69
2023/03/22 10:47:16;;;;;;;;;;;;;;;12.53;82.86;99270.97;5092561;28;20385;-70
2023/03/22 10:49:53;;;;;;;;;;;;;;;12.66;85.38;99263.38;5081278;28;20047;-73
2023/03/22 10:52:24;;;;;;;;;;;;;;;12.49;87.42;99270.91;5086554;28;19958;-73
2023/03/22 10:54:49;;;;;;;;;;;;;;;12.10;85.86;99274.06;5075341;28;19921;-69
2023/03/22 10:57:16;;;;;;;;;;;;;;;12.26;88.79;99267.75;5081083;28;19985;-69
2023/03/22 10:59:44;;;;;;;;;;;;;;;12.29;85.90;99267.03;5095172;28;20271;-70
2023/03/22 11:02:21;;;;;;;;;;;;;;;12.41;82.60;99266.22;5086332;28;19912;-69
2023/03/22 11:05:04;;;;;;;;;;;;;;;12.53;82.61;99279.41;5074832;28;19935;-68
2023/03/22 11:07:37;;;;;;;;;;;;;;;12.47;83.96;99268.44;5072747;28;19946;-69
2023/03/22 11:10:08;;;;;;;;;;;;;;;12.38;81.75;99264.13;5083942;28;20263;-68
2023/03/22 11:12:35;;;;;;;;;;;;;;;12.46;86.53;99264.00;5092831;28;19927;-69
2023/03/22 11:15:01;;;;;;;;;;;;;;;12.41;82.56;99264.22;5092791;28;19916;-70
2023/03/22 11:17:26;;;;;;;;;;;;;;;12.53;82.82;99266.22;5091299;28;19916;-71
2023/03/22 11:19:54;;;;;;;;;;;;;;;12.46;83.80;99257.56;5089495;28;20050;-70
2023/03/22 11:22:34;;;;;;;;;;;;;;;12.72;83.06;99253.53;5084749;28;19924;-70
2023/03/22 11:25:00;;;;;;;;;;;;;;;12.93;82.50;99256.16;5088533;28;20416;-69
2023/03/22 11:27:27;;;;;;;;;;;;;;;12.84;79.10;99249.88;5091412;28;19920;-68
2023/03/22 11:29:56;;;;;;;;;;;;;;;12.74;83.32;99249.19;5086517;28;19912;-69
2023/03/22 11:32:25;;;;;;;;;;;;;;;12.81;82.13;99250.59;5073014;28;19943;-70
2023/03/22 11:35:09;;;;;;;;;;;;;;;12.85;78.53;99248.69;5070530;28;20386;-69
2023/03/22 11:37:39;;;;;;;;;;;;;;;13.17;79.44;99237.59;5070703;28;20345;-74
2023/03/22 11:40:09;;;;;;;;;;;;;;;13.17;78.34;99234.78;5080480;28;20393;-72
2023/03/22 11:42:35;;;;;;;;;;;;;;;12.97;79.49;99228.19;5084712;28;19928;-71
2023/03/22 11:45:00;;;;;;;;;;;;;;;13.00;81.04;99228.28;5091793;28;20314;-71
2023/03/22 11:47:29;;;;;;;;;;;;;;;12.84;80.16;99227.44;5092024;28;19919;-72
2023/03/22 11:49:56;;;;;;;;;;;;;;;13.06;79.74;99223.22;5091966;28;20041;-72
2023/03/22 11:52:23;;;;;;;;;;;;;;;12.97;79.38;99220.59;5089989;28;20418;-71
2023/03/22 11:54:49;;;;;;;;;;;;;;;13.06;77.88;99223.22;5090331;28;20010;-72
2023/03/22 11:57:25;;;;;;;;;;;;;;;13.21;75.30;99224.47;5090384;28;19912;-72
2023/03/22 12:00:05;;;;;;;;;;;;;;;13.00;73.81;99217.06;5088982;28;19974;-70
2023/03/22 12:02:34;;;;;;;;;;;;;;;12.88;75.01;99222.72;5088861;28;19916;-71
2023/03/22 12:05:04;;;;;;;;;;;;;;;12.78;76.77;99233.28;5088211;28;19920;-71
2023/03/22 12:07:31;;;;;;;;;;;;;;;12.96;77.24;99224.56;5091965;28;20330;-71
2023/03/22 12:10:14;;;;;;;;;;;;;;;12.91;77.91;99219.19;5093729;28;19920;-71
2023/03/22 12:12:45;;;;;;;;;;;;;;;12.94;74.67;99217.66;5092894;28;19920;-71
2023/03/22 12:15:24;;;;;;;;;;;;;;;12.92;74.68;99216.03;5083477;28;19927;-71
2023/03/22 12:18:01;;;;;;;;;;;;;;;12.94;74.13;99218.50;5082060;28;19923;-71
2023/03/22 12:20:33;;;;;;;;;;;;;;;13.13;72.86;99217.81;5072285;28;19913;-70
2023/03/22 12:22:58;;;;;;;;;;;;;;;13.17;73.08;99226.34;5076965;28;20081;-71
2023/03/22 12:25:26;;;;;;;;;;;;;;;13.23;73.25;99218.50;5097512;27;20434;-71
2023/03/22 12:27:53;;;;;;;;;;;;;;;13.30;71.73;99216.69;5089797;28;20008;-74
2023/03/22 12:30:24;;;;;;;;;;;;;;;13.35;70.93;99221.22;5080068;28;20066;-72
2023/03/22 12:32:52;;;;;;;;;;;;;;;13.22;70.17;99223.28;5072958;28;19951;-71
2023/03/22 12:35:20;;;;;;;;;;;;;;;13.37;70.54;99224.50;5073084;28;20319;-71
2023/03/22 12:37:48;;;;;;;;;;;;;;;13.32;68.08;99224.72;5082051;28;19916;-71
2023/03/22 12:40:13;;;;;;;;;;;;;;;13.18;69.65;99225.19;5086221;28;19931;-71
2023/03/22 12:42:42;;;;;;;;;;;;;;;13.36;72.21;99231.28;5090992;28;19924;-71
2023/03/22 12:45:12;;;;;;;;;;;;;;;13.27;70.00;99234.28;5096927;28;19916;-71
2023/03/22 12:47:42;;;;;;;;;;;;;;;13.22;70.89;99237.31;5097492;28;20010;-71